sensor_id;sensor_type;location;lat;lon;timestamp;P1;durP1;ratioP1;P2;durP2;ratioP2
80257;SDS011;69565;37.974;23.708;2023-09-19T00:00:19;0.70;;;0.50;;
80257;SDS011;69565;37.974;23.708;2023-09-19T00:02:55;0.70;;;0.50;;
80257;SDS011;69565;37.974;23.708;2023-09-19T00:05:22;0.63;;;0.50;;
80257;SDS011;69565;37.974;23.708;2023-09-19T00:07:49;0.73;;;0.60;;
80257;SDS011;69565;37.974;23.708;2023-09-19T00:10:19;0.80;;;0.60;;
80257;SDS011;69565;37.974;23.708;2023-09-19T00:12:46;0.60;;;0.50;;
80257;SDS011;69565;37.974;23.708;2023-09-19T00:15:12;1.08;;;0.50;;
80257;SDS011;69565;37.974;23.708;2023-09-19T00:17:38;0.82;;;0.60;;
80257;SDS011;69565;37.974;23.708;2023-09-19T00:20:05;0.70;;;0.70;;
80257;SDS011;69565;37.974;23.708;2023-09-19T00:22:40;0.70;;;0.50;;
80257;SDS011;69565;37.974;23.708;2023-09-19T00:25:10;0.60;;;0.50;;
80257;SDS011;69565;37.974;23.708;2023-09-19T00:27:39;1.52;;;0.60;;
80257;SDS011;69565;37.974;23.708;2023-09-19T00:30:06;0.95;;;0.57;;
80257;SDS011;69565;37.974;23.708;2023-09-19T00:32:34;0.82;;;0.50;;
80257;SDS011;69565;37.974;23.708;2023-09-19T00:35:00;0.55;;;0.40;;
80257;SDS011;69565;37.974;23.708;2023-09-19T00:37:26;0.50;;;0.50;;
80257;SDS011;69565;37.974;23.708;2023-09-19T00:39:51;0.60;;;0.47;;
80257;SDS011;69565;37.974;23.708;2023-09-19T00:42:18;0.90;;;0.60;;
80257;SDS011;69565;37.974;23.708;2023-09-19T00:44:49;0.80;;;0.60;;
80257;SDS011;69565;37.974;23.708;2023-09-19T00:47:16;0.70;;;0.60;;
80257;SDS011;69565;37.974;23.708;2023-09-19T00:49:43;0.60;;;0.50;;
80257;SDS011;69565;37.974;23.708;2023-09-19T00:52:15;0.57;;;0.40;;
80257;SDS011;69565;37.974;23.708;2023-09-19T00:54:44;1.15;;;0.60;;
80257;SDS011;69565;37.974;23.708;2023-09-19T00:57:13;0.60;;;0.50;;
80257;SDS011;69565;37.974;23.708;2023-09-19T00:59:44;0.90;;;0.60;;
80257;SDS011;69565;37.974;23.708;2023-09-19T01:02:13;1.77;;;0.60;;
80257;SDS011;69565;37.974;23.708;2023-09-19T01:04:41;0.90;;;0.60;;
80257;SDS011;69565;37.974;23.708;2023-09-19T01:07:08;0.60;;;0.50;;
80257;SDS011;69565;37.974;23.708;2023-09-19T01:09:34;0.80;;;0.50;;
80257;SDS011;69565;37.974;23.708;2023-09-19T01:12:01;0.70;;;0.50;;
80257;SDS011;69565;37.974;23.708;2023-09-19T01:23:13;0.50;;;0.50;;
80257;SDS011;69565;37.974;23.708;2023-09-19T01:28:45;0.70;;;0.50;;
80257;SDS011;69565;37.974;23.708;2023-09-19T01:31:21;0.77;;;0.52;;
80257;SDS011;69565;37.974;23.708;2023-09-19T01:33:55;0.63;;;0.50;;
80257;SDS011;69565;37.974;23.708;2023-09-19T01:36:25;0.60;;;0.50;;
80257;SDS011;69565;37.974;23.708;2023-09-19T01:39:02;1.77;;;0.50;;
80257;SDS011;69565;37.974;23.708;2023-09-19T01:44:15;1.00;;;0.50;;
80257;SDS011;69565;37.974;23.708;2023-09-19T01:46:49;0.90;;;0.52;;
80257;SDS011;69565;37.974;23.708;2023-09-19T01:49:29;0.55;;;0.50;;
80257;SDS011;69565;37.974;23.708;2023-09-19T01:54:55;0.60;;;0.40;;
80257;SDS011;69565;37.974;23.708;2023-09-19T01:57:42;0.70;;;0.60;;
80257;SDS011;69565;37.974;23.708;2023-09-19T02:00:19;0.77;;;0.57;;
80257;SDS011;69565;37.974;23.708;2023-09-19T02:02:47;1.27;;;0.60;;
80257;SDS011;69565;37.974;23.708;2023-09-19T02:05:13;0.68;;;0.50;;
80257;SDS011;69565;37.974;23.708;2023-09-19T02:07:49;0.75;;;0.60;;
80257;SDS011;69565;37.974;23.708;2023-09-19T02:10:15;0.70;;;0.52;;
80257;SDS011;69565;37.974;23.708;2023-09-19T02:12:42;1.40;;;0.50;;
80257;SDS011;69565;37.974;23.708;2023-09-19T02:15:07;0.70;;;0.50;;
80257;SDS011;69565;37.974;23.708;2023-09-19T02:17:34;0.60;;;0.50;;
80257;SDS011;69565;37.974;23.708;2023-09-19T02:20:00;0.60;;;0.50;;
80257;SDS011;69565;37.974;23.708;2023-09-19T02:22:26;0.60;;;0.40;;
80257;SDS011;69565;37.974;23.708;2023-09-19T02:24:53;1.95;;;0.52;;
80257;SDS011;69565;37.974;23.708;2023-09-19T02:27:19;0.80;;;0.50;;
80257;SDS011;69565;37.974;23.708;2023-09-19T02:29:44;0.70;;;0.57;;
80257;SDS011;69565;37.974;23.708;2023-09-19T02:32:10;0.60;;;0.50;;
80257;SDS011;69565;37.974;23.708;2023-09-19T02:34:36;0.73;;;0.50;;
80257;SDS011;69565;37.974;23.708;2023-09-19T02:37:04;0.60;;;0.50;;
80257;SDS011;69565;37.974;23.708;2023-09-19T02:39:33;1.90;;;0.60;;
80257;SDS011;69565;37.974;23.708;2023-09-19T02:41:59;0.75;;;0.50;;
80257;SDS011;69565;37.974;23.708;2023-09-19T02:44:25;0.57;;;0.50;;
80257;SDS011;69565;37.974;23.708;2023-09-19T02:46:51;0.65;;;0.52;;
80257;SDS011;69565;37.974;23.708;2023-09-19T02:49:17;0.82;;;0.60;;
80257;SDS011;69565;37.974;23.708;2023-09-19T02:51:43;0.80;;;0.57;;
80257;SDS011;69565;37.974;23.708;2023-09-19T02:54:10;0.57;;;0.50;;
80257;SDS011;69565;37.974;23.708;2023-09-19T02:56:36;3.53;;;0.50;;
80257;SDS011;69565;37.974;23.708;2023-09-19T02:59:03;0.80;;;0.55;;
80257;SDS011;69565;37.974;23.708;2023-09-19T03:01:29;0.70;;;0.50;;
80257;SDS011;69565;37.974;23.708;2023-09-19T03:03:55;0.88;;;0.57;;
80257;SDS011;69565;37.974;23.708;2023-09-19T03:06:21;0.80;;;0.50;;
80257;SDS011;69565;37.974;23.708;2023-09-19T03:08:49;0.80;;;0.50;;
80257;SDS011;69565;37.974;23.708;2023-09-19T03:11:17;1.00;;;0.70;;
80257;SDS011;69565;37.974;23.708;2023-09-19T03:13:50;0.70;;;0.50;;
80257;SDS011;69565;37.974;23.708;2023-09-19T03:16:19;0.80;;;0.50;;
80257;SDS011;69565;37.974;23.708;2023-09-19T03:18:48;0.80;;;0.50;;
80257;SDS011;69565;37.974;23.708;2023-09-19T03:21:14;1.15;;;0.65;;
80257;SDS011;69565;37.974;23.708;2023-09-19T03:23:42;0.70;;;0.50;;
80257;SDS011;69565;37.974;23.708;2023-09-19T03:26:10;1.17;;;0.60;;
80257;SDS011;69565;37.974;23.708;2023-09-19T03:28:38;0.60;;;0.50;;
80257;SDS011;69565;37.974;23.708;2023-09-19T03:31:04;0.85;;;0.60;;
80257;SDS011;69565;37.974;23.708;2023-09-19T03:33:31;0.80;;;0.50;;
80257;SDS011;69565;37.974;23.708;2023-09-19T03:35:58;0.75;;;0.52;;
80257;SDS011;69565;37.974;23.708;2023-09-19T03:38:24;0.88;;;0.55;;
80257;SDS011;69565;37.974;23.708;2023-09-19T03:40:51;0.77;;;0.50;;
80257;SDS011;69565;37.974;23.708;2023-09-19T03:43:16;1.00;;;0.60;;
80257;SDS011;69565;37.974;23.708;2023-09-19T03:45:42;1.85;;;0.60;;
80257;SDS011;69565;37.974;23.708;2023-09-19T03:48:09;4.70;;;0.60;;
80257;SDS011;69565;37.974;23.708;2023-09-19T03:50:35;0.70;;;0.50;;
80257;SDS011;69565;37.974;23.708;2023-09-19T03:53:01;1.05;;;0.60;;
80257;SDS011;69565;37.974;23.708;2023-09-19T03:55:27;0.88;;;0.60;;
80257;SDS011;69565;37.974;23.708;2023-09-19T03:57:53;0.90;;;0.50;;
80257;SDS011;69565;37.974;23.708;2023-09-19T04:00:19;0.77;;;0.50;;
80257;SDS011;69565;37.974;23.708;2023-09-19T04:02:47;1.00;;;0.55;;
80257;SDS011;69565;37.974;23.708;2023-09-19T04:05:13;0.90;;;0.60;;
80257;SDS011;69565;37.974;23.708;2023-09-19T04:07:39;0.68;;;0.50;;
80257;SDS011;69565;37.974;23.708;2023-09-19T04:10:05;1.80;;;0.63;;
80257;SDS011;69565;37.974;23.708;2023-09-19T04:12:33;0.82;;;0.60;;
80257;SDS011;69565;37.974;23.708;2023-09-19T04:14:59;1.40;;;0.60;;
80257;SDS011;69565;37.974;23.708;2023-09-19T04:17:25;0.93;;;0.60;;
80257;SDS011;69565;37.974;23.708;2023-09-19T04:19:51;1.58;;;0.60;;
80257;SDS011;69565;37.974;23.708;2023-09-19T04:22:16;0.80;;;0.50;;
80257;SDS011;69565;37.974;23.708;2023-09-19T04:24:42;1.20;;;0.60;;
80257;SDS011;69565;37.974;23.708;2023-09-19T04:27:08;0.80;;;0.60;;
80257;SDS011;69565;37.974;23.708;2023-09-19T04:29:34;2.80;;;0.60;;
80257;SDS011;69565;37.974;23.708;2023-09-19T04:32:00;1.20;;;0.55;;
80257;SDS011;69565;37.974;23.708;2023-09-19T04:34:29;0.75;;;0.50;;
80257;SDS011;69565;37.974;23.708;2023-09-19T04:36:55;0.70;;;0.60;;
80257;SDS011;69565;37.974;23.708;2023-09-19T04:39:25;0.82;;;0.55;;
80257;SDS011;69565;37.974;23.708;2023-09-19T04:41:52;0.85;;;0.60;;
80257;SDS011;69565;37.974;23.708;2023-09-19T04:44:18;2.42;;;0.50;;
80257;SDS011;69565;37.974;23.708;2023-09-19T04:46:44;2.15;;;0.50;;
80257;SDS011;69565;37.974;23.708;2023-09-19T04:49:13;2.70;;;0.60;;
80257;SDS011;69565;37.974;23.708;2023-09-19T04:51:39;0.90;;;0.45;;
80257;SDS011;69565;37.974;23.708;2023-09-19T04:54:05;2.67;;;0.50;;
80257;SDS011;69565;37.974;23.708;2023-09-19T04:56:31;2.28;;;0.60;;
80257;SDS011;69565;37.974;23.708;2023-09-19T04:58:58;1.10;;;0.50;;
80257;SDS011;69565;37.974;23.708;2023-09-19T05:01:25;0.70;;;0.50;;
80257;SDS011;69565;37.974;23.708;2023-09-19T05:03:52;0.50;;;0.40;;
80257;SDS011;69565;37.974;23.708;2023-09-19T05:06:18;4.20;;;0.50;;
80257;SDS011;69565;37.974;23.708;2023-09-19T05:08:46;0.60;;;0.40;;
80257;SDS011;69565;37.974;23.708;2023-09-19T05:11:19;0.80;;;0.47;;
80257;SDS011;69565;37.974;23.708;2023-09-19T05:13:46;0.52;;;0.30;;
80257;SDS011;69565;37.974;23.708;2023-09-19T05:16:12;0.73;;;0.40;;
80257;SDS011;69565;37.974;23.708;2023-09-19T05:18:38;0.70;;;0.40;;
80257;SDS011;69565;37.974;23.708;2023-09-19T05:21:04;0.40;;;0.40;;
80257;SDS011;69565;37.974;23.708;2023-09-19T05:23:30;0.40;;;0.40;;
80257;SDS011;69565;37.974;23.708;2023-09-19T05:25:56;2.05;;;0.40;;
80257;SDS011;69565;37.974;23.708;2023-09-19T05:28:25;0.40;;;0.30;;
80257;SDS011;69565;37.974;23.708;2023-09-19T05:30:52;0.45;;;0.30;;
80257;SDS011;69565;37.974;23.708;2023-09-19T05:33:18;0.40;;;0.40;;
80257;SDS011;69565;37.974;23.708;2023-09-19T05:35:44;0.45;;;0.35;;
80257;SDS011;69565;37.974;23.708;2023-09-19T05:38:13;0.35;;;0.30;;
80257;SDS011;69565;37.974;23.708;2023-09-19T05:40:39;0.43;;;0.30;;
80257;SDS011;69565;37.974;23.708;2023-09-19T05:43:10;0.30;;;0.30;;
80257;SDS011;69565;37.974;23.708;2023-09-19T05:45:37;0.30;;;0.30;;
80257;SDS011;69565;37.974;23.708;2023-09-19T05:48:09;0.43;;;0.30;;
80257;SDS011;69565;37.974;23.708;2023-09-19T05:50:40;0.32;;;0.30;;
80257;SDS011;69565;37.974;23.708;2023-09-19T05:53:07;0.30;;;0.20;;
80257;SDS011;69565;37.974;23.708;2023-09-19T05:55:33;0.30;;;0.30;;
80257;SDS011;69565;37.974;23.708;2023-09-19T05:57:59;0.30;;;0.20;;
80257;SDS011;69565;37.974;23.708;2023-09-19T06:00:25;0.55;;;0.30;;
80257;SDS011;69565;37.974;23.708;2023-09-19T06:02:58;0.20;;;0.20;;
80257;SDS011;69565;37.974;23.708;2023-09-19T06:05:25;0.32;;;0.30;;
80257;SDS011;69565;37.974;23.708;2023-09-19T06:07:53;0.30;;;0.30;;
80257;SDS011;69565;37.974;23.708;2023-09-19T06:10:19;0.30;;;0.30;;
80257;SDS011;69565;37.974;23.708;2023-09-19T06:12:48;1.50;;;0.30;;
80257;SDS011;69565;37.974;23.708;2023-09-19T06:15:14;0.38;;;0.30;;
80257;SDS011;69565;37.974;23.708;2023-09-19T06:20:14;0.25;;;0.25;;
80257;SDS011;69565;37.974;23.708;2023-09-19T06:22:42;0.30;;;0.30;;
80257;SDS011;69565;37.974;23.708;2023-09-19T06:25:12;0.30;;;0.30;;
80257;SDS011;69565;37.974;23.708;2023-09-19T06:27:48;0.30;;;0.20;;
80257;SDS011;69565;37.974;23.708;2023-09-19T06:30:17;0.30;;;0.20;;
80257;SDS011;69565;37.974;23.708;2023-09-19T06:32:43;0.40;;;0.20;;
80257;SDS011;69565;37.974;23.708;2023-09-19T06:35:10;0.38;;;0.30;;
80257;SDS011;69565;37.974;23.708;2023-09-19T06:37:39;0.20;;;0.20;;
80257;SDS011;69565;37.974;23.708;2023-09-19T06:40:08;1.25;;;0.30;;
80257;SDS011;69565;37.974;23.708;2023-09-19T06:42:39;0.30;;;0.30;;
80257;SDS011;69565;37.974;23.708;2023-09-19T06:45:13;0.20;;;0.20;;
80257;SDS011;69565;37.974;23.708;2023-09-19T06:47:47;0.30;;;0.30;;
80257;SDS011;69565;37.974;23.708;2023-09-19T06:50:19;0.30;;;0.30;;
80257;SDS011;69565;37.974;23.708;2023-09-19T06:52:48;0.68;;;0.30;;
80257;SDS011;69565;37.974;23.708;2023-09-19T06:55:16;0.35;;;0.30;;
80257;SDS011;69565;37.974;23.708;2023-09-19T06:57:44;0.30;;;0.30;;
80257;SDS011;69565;37.974;23.708;2023-09-19T07:00:11;0.20;;;0.20;;
80257;SDS011;69565;37.974;23.708;2023-09-19T07:02:56;0.30;;;0.30;;
80257;SDS011;69565;37.974;23.708;2023-09-19T07:05:24;0.30;;;0.30;;
80257;SDS011;69565;37.974;23.708;2023-09-19T07:07:49;0.40;;;0.30;;
80257;SDS011;69565;37.974;23.708;2023-09-19T07:10:15;0.30;;;0.28;;
80257;SDS011;69565;37.974;23.708;2023-09-19T07:12:44;0.32;;;0.30;;
80257;SDS011;69565;37.974;23.708;2023-09-19T07:15:10;0.30;;;0.30;;
80257;SDS011;69565;37.974;23.708;2023-09-19T07:17:36;0.40;;;0.30;;
80257;SDS011;69565;37.974;23.708;2023-09-19T07:20:02;0.35;;;0.30;;
80257;SDS011;69565;37.974;23.708;2023-09-19T07:22:32;0.35;;;0.30;;
80257;SDS011;69565;37.974;23.708;2023-09-19T07:24:58;0.50;;;0.35;;
80257;SDS011;69565;37.974;23.708;2023-09-19T07:27:24;0.30;;;0.30;;
80257;SDS011;69565;37.974;23.708;2023-09-19T07:29:51;0.30;;;0.30;;
80257;SDS011;69565;37.974;23.708;2023-09-19T07:32:17;0.32;;;0.30;;
80257;SDS011;69565;37.974;23.708;2023-09-19T07:34:43;0.50;;;0.35;;
80257;SDS011;69565;37.974;23.708;2023-09-19T07:37:10;0.35;;;0.30;;
80257;SDS011;69565;37.974;23.708;2023-09-19T07:39:36;0.40;;;0.38;;
80257;SDS011;69565;37.974;23.708;2023-09-19T07:42:02;0.70;;;0.40;;
80257;SDS011;69565;37.974;23.708;2023-09-19T07:44:29;0.50;;;0.40;;
80257;SDS011;69565;37.974;23.708;2023-09-19T07:46:54;0.60;;;0.60;;
80257;SDS011;69565;37.974;23.708;2023-09-19T07:49:20;0.73;;;0.50;;
80257;SDS011;69565;37.974;23.708;2023-09-19T07:51:46;0.50;;;0.40;;
80257;SDS011;69565;37.974;23.708;2023-09-19T07:54:13;0.70;;;0.50;;
80257;SDS011;69565;37.974;23.708;2023-09-19T07:56:39;0.80;;;0.60;;
80257;SDS011;69565;37.974;23.708;2023-09-19T07:59:05;0.50;;;0.40;;
80257;SDS011;69565;37.974;23.708;2023-09-19T08:01:31;0.70;;;0.60;;
80257;SDS011;69565;37.974;23.708;2023-09-19T08:03:58;0.60;;;0.40;;
80257;SDS011;69565;37.974;23.708;2023-09-19T08:06:24;0.80;;;0.50;;
80257;SDS011;69565;37.974;23.708;2023-09-19T08:08:51;0.70;;;0.60;;
80257;SDS011;69565;37.974;23.708;2023-09-19T08:11:18;0.50;;;0.40;;
80257;SDS011;69565;37.974;23.708;2023-09-19T08:13:46;0.75;;;0.60;;
80257;SDS011;69565;37.974;23.708;2023-09-19T08:16:14;0.60;;;0.50;;
80257;SDS011;69565;37.974;23.708;2023-09-19T08:18:41;0.50;;;0.40;;
80257;SDS011;69565;37.974;23.708;2023-09-19T08:21:07;0.60;;;0.50;;
80257;SDS011;69565;37.974;23.708;2023-09-19T08:23:39;0.98;;;0.47;;
80257;SDS011;69565;37.974;23.708;2023-09-19T08:26:05;0.73;;;0.50;;
80257;SDS011;69565;37.974;23.708;2023-09-19T08:28:36;0.60;;;0.50;;
80257;SDS011;69565;37.974;23.708;2023-09-19T08:31:02;0.70;;;0.60;;
80257;SDS011;69565;37.974;23.708;2023-09-19T08:33:31;1.23;;;0.80;;
80257;SDS011;69565;37.974;23.708;2023-09-19T08:35:58;1.10;;;0.98;;
80257;SDS011;69565;37.974;23.708;2023-09-19T08:38:24;1.55;;;1.00;;
80257;SDS011;69565;37.974;23.708;2023-09-19T08:40:57;1.50;;;1.40;;
80257;SDS011;69565;37.974;23.708;2023-09-19T08:43:24;1.65;;;1.50;;
80257;SDS011;69565;37.974;23.708;2023-09-19T08:45:51;1.88;;;1.30;;
80257;SDS011;69565;37.974;23.708;2023-09-19T08:48:30;1.70;;;1.30;;
80257;SDS011;69565;37.974;23.708;2023-09-19T08:51:06;4.05;;;1.23;;
80257;SDS011;69565;37.974;23.708;2023-09-19T08:53:41;2.85;;;1.20;;
80257;SDS011;69565;37.974;23.708;2023-09-19T08:56:14;1.45;;;1.15;;
80257;SDS011;69565;37.974;23.708;2023-09-19T08:59:02;4.93;;;1.10;;
80257;SDS011;69565;37.974;23.708;2023-09-19T09:01:29;1.30;;;1.00;;
80257;SDS011;69565;37.974;23.708;2023-09-19T09:03:57;1.20;;;0.90;;
80257;SDS011;69565;37.974;23.708;2023-09-19T09:06:24;3.03;;;0.88;;
80257;SDS011;69565;37.974;23.708;2023-09-19T09:08:51;0.93;;;0.80;;
80257;SDS011;69565;37.974;23.708;2023-09-19T09:11:18;1.00;;;0.80;;
80257;SDS011;69565;37.974;23.708;2023-09-19T09:13:44;1.90;;;0.80;;
80257;SDS011;69565;37.974;23.708;2023-09-19T09:16:11;1.10;;;0.70;;
80257;SDS011;69565;37.974;23.708;2023-09-19T09:18:38;1.08;;;0.70;;
80257;SDS011;69565;37.974;23.708;2023-09-19T09:21:05;2.25;;;0.63;;
80257;SDS011;69565;37.974;23.708;2023-09-19T09:23:30;1.17;;;0.70;;
80257;SDS011;69565;37.974;23.708;2023-09-19T09:25:59;0.85;;;0.63;;
80257;SDS011;69565;37.974;23.708;2023-09-19T09:28:30;0.80;;;0.60;;
80257;SDS011;69565;37.974;23.708;2023-09-19T09:30:58;0.80;;;0.70;;
80257;SDS011;69565;37.974;23.708;2023-09-19T09:33:24;0.70;;;0.50;;
80257;SDS011;69565;37.974;23.708;2023-09-19T09:38:21;0.80;;;0.50;;
80257;SDS011;69565;37.974;23.708;2023-09-19T09:40:57;0.60;;;0.50;;
80257;SDS011;69565;37.974;23.708;2023-09-19T09:43:32;0.85;;;0.50;;
80257;SDS011;69565;37.974;23.708;2023-09-19T09:46:06;1.05;;;0.50;;
80257;SDS011;69565;37.974;23.708;2023-09-19T09:48:57;0.80;;;0.52;;
80257;SDS011;69565;37.974;23.708;2023-09-19T09:51:44;0.68;;;0.50;;
80257;SDS011;69565;37.974;23.708;2023-09-19T09:54:26;0.70;;;0.50;;
80257;SDS011;69565;37.974;23.708;2023-09-19T09:57:00;0.55;;;0.50;;
80257;SDS011;69565;37.974;23.708;2023-09-19T10:02:38;1.10;;;0.57;;
80257;SDS011;69565;37.974;23.708;2023-09-19T10:05:17;0.80;;;0.60;;
80257;SDS011;69565;37.974;23.708;2023-09-19T10:07:52;1.08;;;0.50;;
80257;SDS011;69565;37.974;23.708;2023-09-19T10:13:09;0.70;;;0.57;;
80257;SDS011;69565;37.974;23.708;2023-09-19T10:15:39;0.60;;;0.50;;
80257;SDS011;69565;37.974;23.708;2023-09-19T10:18:11;0.82;;;0.70;;
80257;SDS011;69565;37.974;23.708;2023-09-19T10:20:43;1.10;;;0.70;;
80257;SDS011;69565;37.974;23.708;2023-09-19T10:23:11;1.20;;;0.60;;
80257;SDS011;69565;37.974;23.708;2023-09-19T10:25:41;0.80;;;0.70;;
80257;SDS011;69565;37.974;23.708;2023-09-19T10:28:08;0.80;;;0.70;;
80257;SDS011;69565;37.974;23.708;2023-09-19T10:30:42;0.80;;;0.60;;
80257;SDS011;69565;37.974;23.708;2023-09-19T10:35:41;1.00;;;0.80;;
80257;SDS011;69565;37.974;23.708;2023-09-19T10:38:17;0.90;;;0.73;;
80257;SDS011;69565;37.974;23.708;2023-09-19T10:40:48;1.08;;;0.80;;
80257;SDS011;69565;37.974;23.708;2023-09-19T10:43:16;1.00;;;0.85;;
80257;SDS011;69565;37.974;23.708;2023-09-19T10:45:43;1.98;;;0.70;;
80257;SDS011;69565;37.974;23.708;2023-09-19T10:48:18;1.25;;;0.90;;
80257;SDS011;69565;37.974;23.708;2023-09-19T10:50:53;0.80;;;0.80;;
80257;SDS011;69565;37.974;23.708;2023-09-19T10:56:27;1.27;;;1.00;;
80257;SDS011;69565;37.974;23.708;2023-09-19T10:59:07;1.10;;;1.00;;
80257;SDS011;69565;37.974;23.708;2023-09-19T11:01:47;1.20;;;1.00;;
80257;SDS011;69565;37.974;23.708;2023-09-19T11:07:05;1.95;;;1.00;;
80257;SDS011;69565;37.974;23.708;2023-09-19T11:09:50;1.35;;;1.10;;
80257;SDS011;69565;37.974;23.708;2023-09-19T11:14:57;1.15;;;1.00;;
80257;SDS011;69565;37.974;23.708;2023-09-19T11:17:31;5.70;;;1.20;;
80257;SDS011;69565;37.974;23.708;2023-09-19T11:30:32;1.20;;;1.00;;
80257;SDS011;69565;37.974;23.708;2023-09-19T11:33:18;1.10;;;0.90;;
80257;SDS011;69565;37.974;23.708;2023-09-19T11:39:01;1.10;;;0.85;;
80257;SDS011;69565;37.974;23.708;2023-09-19T11:41:37;1.30;;;0.90;;
80257;SDS011;69565;37.974;23.708;2023-09-19T11:46:51;1.23;;;0.90;;
80257;SDS011;69565;37.974;23.708;2023-09-19T11:49:19;1.10;;;0.70;;
80257;SDS011;69565;37.974;23.708;2023-09-19T11:51:51;1.65;;;0.80;;
80257;SDS011;69565;37.974;23.708;2023-09-19T11:54:17;0.90;;;0.80;;
80257;SDS011;69565;37.974;23.708;2023-09-19T11:56:48;1.00;;;0.70;;
80257;SDS011;69565;37.974;23.708;2023-09-19T11:59:27;0.90;;;0.80;;
80257;SDS011;69565;37.974;23.708;2023-09-19T12:02:00;3.22;;;0.60;;
80257;SDS011;69565;37.974;23.708;2023-09-19T12:04:43;1.33;;;0.65;;
80257;SDS011;69565;37.974;23.708;2023-09-19T12:07:13;0.68;;;0.60;;
80257;SDS011;69565;37.974;23.708;2023-09-19T12:09:44;0.70;;;0.50;;
80257;SDS011;69565;37.974;23.708;2023-09-19T12:12:24;0.80;;;0.50;;
80257;SDS011;69565;37.974;23.708;2023-09-19T12:14:54;2.58;;;0.55;;
80257;SDS011;69565;37.974;23.708;2023-09-19T12:17:22;1.00;;;0.50;;
80257;SDS011;69565;37.974;23.708;2023-09-19T12:19:52;1.30;;;0.50;;
80257;SDS011;69565;37.974;23.708;2023-09-19T12:22:19;0.70;;;0.60;;
80257;SDS011;69565;37.974;23.708;2023-09-19T12:24:46;0.60;;;0.50;;
80257;SDS011;69565;37.974;23.708;2023-09-19T12:27:12;0.60;;;0.50;;
80257;SDS011;69565;37.974;23.708;2023-09-19T12:29:45;0.52;;;0.50;;
80257;SDS011;69565;37.974;23.708;2023-09-19T12:32:14;0.60;;;0.50;;
80257;SDS011;69565;37.974;23.708;2023-09-19T12:37:19;0.60;;;0.40;;
80257;SDS011;69565;37.974;23.708;2023-09-19T12:40:02;0.50;;;0.40;;
80257;SDS011;69565;37.974;23.708;2023-09-19T12:42:51;0.70;;;0.50;;
80257;SDS011;69565;37.974;23.708;2023-09-19T12:45:20;0.52;;;0.50;;
80257;SDS011;69565;37.974;23.708;2023-09-19T12:53:32;1.17;;;0.80;;
80257;SDS011;69565;37.974;23.708;2023-09-19T12:56:05;0.90;;;0.73;;
80257;SDS011;69565;37.974;23.708;2023-09-19T12:58:33;2.70;;;2.50;;
80257;SDS011;69565;37.974;23.708;2023-09-19T13:01:13;1.37;;;1.10;;
80257;SDS011;69565;37.974;23.708;2023-09-19T13:03:45;1.45;;;1.02;;
80257;SDS011;69565;37.974;23.708;2023-09-19T13:06:35;2.63;;;2.42;;
80257;SDS011;69565;37.974;23.708;2023-09-19T13:09:09;2.00;;;1.80;;
80257;SDS011;69565;37.974;23.708;2023-09-19T13:11:36;1.80;;;1.48;;
80257;SDS011;69565;37.974;23.708;2023-09-19T13:14:16;3.03;;;2.30;;
80257;SDS011;69565;37.974;23.708;2023-09-19T13:16:55;3.13;;;2.83;;
80257;SDS011;69565;37.974;23.708;2023-09-19T13:25:23;2.42;;;2.22;;
80257;SDS011;69565;37.974;23.708;2023-09-19T13:27:54;2.70;;;2.50;;
80257;SDS011;69565;37.974;23.708;2023-09-19T13:30:22;2.33;;;2.13;;
80257;SDS011;69565;37.974;23.708;2023-09-19T13:33:09;2.30;;;2.10;;
80257;SDS011;69565;37.974;23.708;2023-09-19T13:35:38;1.70;;;1.60;;
80257;SDS011;69565;37.974;23.708;2023-09-19T13:38:07;2.10;;;1.67;;
80257;SDS011;69565;37.974;23.708;2023-09-19T13:40:36;2.08;;;1.30;;
80257;SDS011;69565;37.974;23.708;2023-09-19T13:43:04;1.38;;;1.27;;
80257;SDS011;69565;37.974;23.708;2023-09-19T13:45:31;1.10;;;0.98;;
80257;SDS011;69565;37.974;23.708;2023-09-19T13:47:57;1.02;;;0.90;;
80257;SDS011;69565;37.974;23.708;2023-09-19T13:50:26;1.20;;;0.93;;
80257;SDS011;69565;37.974;23.708;2023-09-19T13:52:54;1.30;;;0.90;;
80257;SDS011;69565;37.974;23.708;2023-09-19T13:55:20;0.90;;;0.80;;
80257;SDS011;69565;37.974;23.708;2023-09-19T13:57:46;0.90;;;0.80;;
80257;SDS011;69565;37.974;23.708;2023-09-19T14:00:17;0.82;;;0.70;;
80257;SDS011;69565;37.974;23.708;2023-09-19T14:02:43;0.70;;;0.65;;
80257;SDS011;69565;37.974;23.708;2023-09-19T14:05:11;0.60;;;0.57;;
80257;SDS011;69565;37.974;23.708;2023-09-19T14:07:40;0.68;;;0.60;;
80257;SDS011;69565;37.974;23.708;2023-09-19T14:10:07;3.53;;;0.60;;
80257;SDS011;69565;37.974;23.708;2023-09-19T14:12:33;0.77;;;0.60;;
80257;SDS011;69565;37.974;23.708;2023-09-19T14:15:00;0.70;;;0.60;;
80257;SDS011;69565;37.974;23.708;2023-09-19T14:17:26;0.60;;;0.60;;
80257;SDS011;69565;37.974;23.708;2023-09-19T14:19:53;0.70;;;0.50;;
80257;SDS011;69565;37.974;23.708;2023-09-19T14:22:18;0.60;;;0.60;;
80257;SDS011;69565;37.974;23.708;2023-09-19T14:24:44;0.60;;;0.50;;
80257;SDS011;69565;37.974;23.708;2023-09-19T14:27:10;0.57;;;0.50;;
80257;SDS011;69565;37.974;23.708;2023-09-19T14:29:36;0.70;;;0.50;;
80257;SDS011;69565;37.974;23.708;2023-09-19T14:32:02;0.70;;;0.50;;
80257;SDS011;69565;37.974;23.708;2023-09-19T14:34:28;0.60;;;0.50;;
80257;SDS011;69565;37.974;23.708;2023-09-19T14:36:54;0.50;;;0.50;;
80257;SDS011;69565;37.974;23.708;2023-09-19T14:39:20;0.50;;;0.45;;
80257;SDS011;69565;37.974;23.708;2023-09-19T14:41:45;0.60;;;0.50;;
80257;SDS011;69565;37.974;23.708;2023-09-19T14:44:11;0.77;;;0.55;;
80257;SDS011;69565;37.974;23.708;2023-09-19T14:46:38;0.40;;;0.40;;
80257;SDS011;69565;37.974;23.708;2023-09-19T14:49:04;0.52;;;0.50;;
80257;SDS011;69565;37.974;23.708;2023-09-19T14:51:31;0.63;;;0.50;;
80257;SDS011;69565;37.974;23.708;2023-09-19T14:53:56;0.50;;;0.50;;
80257;SDS011;69565;37.974;23.708;2023-09-19T14:56:23;0.60;;;0.40;;
80257;SDS011;69565;37.974;23.708;2023-09-19T14:58:50;1.27;;;0.40;;
80257;SDS011;69565;37.974;23.708;2023-09-19T15:01:16;0.50;;;0.40;;
80257;SDS011;69565;37.974;23.708;2023-09-19T15:03:42;0.77;;;0.50;;
80257;SDS011;69565;37.974;23.708;2023-09-19T15:06:11;0.60;;;0.40;;
80257;SDS011;69565;37.974;23.708;2023-09-19T15:08:39;0.50;;;0.40;;
80257;SDS011;69565;37.974;23.708;2023-09-19T15:11:06;1.25;;;0.30;;
80257;SDS011;69565;37.974;23.708;2023-09-19T15:13:33;0.60;;;0.40;;
80257;SDS011;69565;37.974;23.708;2023-09-19T15:16:17;0.40;;;0.40;;
80257;SDS011;69565;37.974;23.708;2023-09-19T15:18:44;0.38;;;0.30;;
80257;SDS011;69565;37.974;23.708;2023-09-19T15:21:13;0.50;;;0.40;;
80257;SDS011;69565;37.974;23.708;2023-09-19T15:23:40;0.30;;;0.30;;
80257;SDS011;69565;37.974;23.708;2023-09-19T15:26:07;0.30;;;0.30;;
80257;SDS011;69565;37.974;23.708;2023-09-19T15:28:33;0.40;;;0.40;;
80257;SDS011;69565;37.974;23.708;2023-09-19T15:31:00;0.38;;;0.35;;
80257;SDS011;69565;37.974;23.708;2023-09-19T15:33:31;0.40;;;0.40;;
80257;SDS011;69565;37.974;23.708;2023-09-19T15:36:04;0.40;;;0.30;;
80257;SDS011;69565;37.974;23.708;2023-09-19T15:38:31;0.50;;;0.40;;
80257;SDS011;69565;37.974;23.708;2023-09-19T15:41:12;0.40;;;0.40;;
80257;SDS011;69565;37.974;23.708;2023-09-19T15:43:38;0.50;;;0.40;;
80257;SDS011;69565;37.974;23.708;2023-09-19T15:46:06;0.70;;;0.50;;
80257;SDS011;69565;37.974;23.708;2023-09-19T15:48:32;0.80;;;0.40;;
80257;SDS011;69565;37.974;23.708;2023-09-19T15:51:02;0.43;;;0.40;;
80257;SDS011;69565;37.974;23.708;2023-09-19T15:53:31;0.60;;;0.40;;